Time;durP1;ratioP1;P1;durP2;ratioP2;P2;SDS_P1;SDS_P2;PMS_P1;PMS_P2;Temp;Humidity;BMP_temperature;BMP_pressure;BME280_temperature;BME280_humidity;BME280_pressure;Samples;Min_cycle;Max_cycle;Signal;HPM_P1;HPM_P2
2024/02/25 00:01:15;;;;;;;5.90;2.55;;;;;;;2.19;88.43;100496.16;5037541;28;20091;-47
2024/02/25 00:03:41;;;;;;;6.50;2.67;;;;;;;1.98;88.78;100475.38;5035586;28;20139;-48
2024/02/25 00:06:07;;;;;;;8.52;3.53;;;;;;;2.18;89.31;100497.00;5037350;28;20053;-48
2024/02/25 00:08:33;;;;;;;6.82;3.08;;;;;;;2.26;89.91;100507.34;5031448;28;20155;-45
2024/02/25 00:10:59;;;;;;;5.75;2.55;;;;;;;2.22;89.65;100505.59;5026812;28;20133;-47
2024/02/25 00:13:25;;;;;;;6.22;2.70;;;;;;;2.01;89.92;100477.97;5057985;28;20037;-46
2024/02/25 00:15:52;;;;;;;5.60;2.58;;;;;;;2.17;90.53;100502.97;5026199;28;20044;-48
2024/02/25 00:18:18;;;;;;;12.77;2.42;;;;;;;2.09;91.20;100518.25;5026584;28;20049;-52
2024/02/25 00:20:43;;;;;;;4.72;2.72;;;;;;;2.09;91.62;100505.41;5025340;28;20041;-48
2024/02/25 00:23:09;;;;;;;8.45;3.13;;;;;;;2.08;92.18;100516.53;5027616;28;20029;-50
2024/02/25 00:25:36;;;;;;;7.07;2.90;;;;;;;2.08;92.66;100508.84;5041912;28;20046;-46
2024/02/25 00:28:03;;;;;;;7.07;3.03;;;;;;;2.10;92.66;100519.97;5044714;28;20045;-48
2024/02/25 00:30:29;;;;;;;4.68;2.30;;;;;;;2.08;92.22;100495.16;5012258;28;20050;-48
2024/02/25 00:32:54;;;;;;;5.07;2.80;;;;;;;2.10;92.11;100507.16;5013853;28;20033;-48
2024/02/25 00:35:21;;;;;;;5.35;2.53;;;;;;;2.09;92.10;100500.28;5058142;28;20087;-48
2024/02/25 00:37:47;;;;;;;6.97;3.13;;;;;;;2.10;91.90;100509.72;5025603;28;20107;-51
2024/02/25 00:40:13;;;;;;;6.43;3.10;;;;;;;2.09;92.03;100507.97;5025766;28;20084;-48
2024/02/25 00:42:39;;;;;;;5.13;2.78;;;;;;;2.08;91.56;100503.72;5024518;28;20588;-47
2024/02/25 00:45:05;;;;;;;5.47;2.80;;;;;;;2.10;91.79;100504.59;5025729;28;20069;-48
2024/02/25 00:47:31;;;;;;;7.65;2.90;;;;;;;2.11;91.89;100508.88;5041379;28;20103;-45
2024/02/25 00:49:57;;;;;;;5.85;2.42;;;;;;;1.92;92.42;100470.16;5024742;28;20171;-49
2024/02/25 00:52:24;;;;;;;6.07;3.08;;;;;;;2.11;92.45;100508.00;5014920;28;20080;-48
2024/02/25 00:54:50;;;;;;;5.50;2.97;;;;;;;2.10;92.75;100514.84;5019744;28;20033;-46
2024/02/25 00:57:16;;;;;;;7.25;3.45;;;;;;;2.09;93.36;100500.28;5006519;28;20422;-49
2024/02/25 00:59:42;;;;;;;9.90;2.92;;;;;;;2.15;93.62;100521.75;5017071;28;20041;-49
2024/02/25 01:02:08;;;;;;;6.30;3.00;;;;;;;2.10;93.68;100509.72;5024268;28;20043;-47
2024/02/25 01:04:34;;;;;;;8.73;3.85;;;;;;;2.11;93.47;100505.44;5024222;28;20033;-47
2024/02/25 01:07:00;;;;;;;6.75;3.03;;;;;;;2.10;93.94;100512.28;5024264;28;20483;-47
2024/02/25 01:09:25;;;;;;;7.75;3.83;;;;;;;2.11;94.42;100515.69;5021893;28;20454;-49
2024/02/25 01:11:52;;;;;;;5.97;3.03;;;;;;;2.07;94.68;100503.69;5023816;28;20041;-49
2024/02/25 01:14:19;;;;;;;7.95;3.42;;;;;;;2.00;94.76;100513.00;5025906;28;20520;-50
2024/02/25 01:16:47;;;;;;;6.20;2.88;;;;;;;2.03;95.16;100507.94;5057396;28;20041;-47
2024/02/25 01:19:14;;;;;;;6.38;2.97;;;;;;;2.00;95.64;100504.44;5040905;28;20033;-50
2024/02/25 01:21:40;;;;;;;7.32;3.35;;;;;;;1.99;95.96;100505.31;5039884;28;20055;-50
2024/02/25 01:24:05;;;;;;;6.47;3.55;;;;;;;2.00;96.63;100504.44;5025238;28;20041;-47
2024/02/25 01:26:32;;;;;;;9.32;3.58;;;;;;;1.99;96.50;100506.13;5026074;28;20037;-46
2024/02/25 01:28:58;;;;;;;8.90;3.70;;;;;;;1.95;96.76;100501.81;5025030;28;20038;-46
2024/02/25 01:31:24;;;;;;;7.00;3.45;;;;;;;1.95;97.24;100509.50;5023453;28;20068;-49
2024/02/25 01:33:49;;;;;;;6.45;3.08;;;;;;;1.95;97.35;100504.38;5023981;28;20045;-47
2024/02/25 01:36:15;;;;;;;7.00;3.17;;;;;;;1.94;97.39;100512.91;5024538;28;20468;-47
2024/02/25 01:38:41;;;;;;;6.05;3.53;;;;;;;1.92;98.06;100503.50;5025561;28;20424;-46
2024/02/25 01:41:07;;;;;;;6.75;2.42;;;;;;;1.92;97.99;100522.31;5024021;28;20128;-47
2024/02/25 01:43:37;;;;;;;5.38;2.30;;;;;;;1.76;98.21;100488.75;5023720;28;20033;-47
2024/02/25 01:46:03;;;;;;;8.43;3.33;;;;;;;1.90;98.56;100511.16;5025431;28;20134;-46
2024/02/25 01:48:29;;;;;;;4.55;2.92;;;;;;;1.85;98.57;100515.34;5025486;28;20073;-46
2024/02/25 01:50:55;;;;;;;7.38;3.72;;;;;;;1.86;99.12;100500.84;5044455;28;20114;-49
2024/02/25 01:53:21;;;;;;;6.22;2.28;;;;;;;1.88;99.33;100509.44;5027183;28;20071;-49
2024/02/25 01:55:50;;;;;;;8.48;3.10;;;;;;;1.87;99.42;100512.81;5061224;28;20045;-47
2024/02/25 01:58:19;;;;;;;5.28;2.25;;;;;;;1.66;99.31;100475.81;5027616;28;20041;-45
2024/02/25 02:00:47;;;;;;;7.55;3.60;;;;;;;1.86;99.68;100514.53;5028657;28;20123;-47
2024/02/25 02:03:13;;;;;;;7.90;3.17;;;;;;;1.67;99.67;100474.09;5029192;28;20045;-48
2024/02/25 02:05:39;;;;;;;4.70;2.63;;;;;;;1.88;99.62;100517.97;5029388;28;20098;-47
2024/02/25 02:08:06;;;;;;;6.15;3.22;;;;;;;1.91;100.00;100497.50;5029655;28;20040;-48
2024/02/25 02:10:32;;;;;;;5.43;2.25;;;;;;;1.88;100.00;100499.16;5027736;28;20034;-47
2024/02/25 02:13:01;;;;;;;6.13;3.10;;;;;;;1.83;100.00;100498.25;5029072;28;20033;-47
2024/02/25 02:15:28;;;;;;;6.03;2.80;;;;;;;1.66;100.00;100473.25;5029641;28;20761;-49
2024/02/25 02:17:54;;;;;;;4.65;2.60;;;;;;;1.80;100.00;100501.63;5029639;28;20041;-47
2024/02/25 02:20:20;;;;;;;5.57;3.42;;;;;;;1.83;100.00;100503.38;5028795;28;20643;-48
2024/02/25 02:22:47;;;;;;;7.10;3.15;;;;;;;1.85;100.00;100510.22;5029071;28;20501;-47
2024/02/25 02:25:15;;;;;;;8.00;3.85;;;;;;;1.60;100.00;100462.88;5028406;28;20037;-46
2024/02/25 02:27:43;;;;;;;4.80;2.38;;;;;;;1.85;100.00;100517.06;5027904;28;20187;-49
2024/02/25 02:30:10;;;;;;;3.55;2.13;;;;;;;1.83;100.00;100522.19;5027246;28;20041;-47
2024/02/25 02:32:36;;;;;;;7.00;3.17;;;;;;;1.83;100.00;100505.94;5028817;28;20067;-45
2024/02/25 02:35:03;;;;;;;4.78;2.53;;;;;;;1.87;100.00;100511.13;5028270;28;20497;-48
2024/02/25 02:37:31;;;;;;;7.70;3.33;;;;;;;1.92;100.00;100513.75;5010895;28;20131;-45
2024/02/25 02:39:57;;;;;;;6.28;2.83;;;;;;;1.82;100.00;100497.38;5025145;28;20041;-47
2024/02/25 02:42:24;;;;;;;9.32;3.72;;;;;;;1.88;100.00;100514.56;5009066;28;20064;-52
2024/02/25 02:44:50;;;;;;;6.45;2.60;;;;;;;1.89;100.00;100513.69;5009266;28;20763;-46
2024/02/25 02:47:19;;;;;;;5.20;3.20;;;;;;;1.88;100.00;100527.38;5027966;28;20114;-48
2024/02/25 02:49:45;;;;;;;5.65;2.67;;;;;;;1.88;100.00;100517.97;5027929;28;20049;-46
2024/02/25 02:52:11;;;;;;;8.25;3.17;;;;;;;1.89;100.00;100508.56;5028508;28;20517;-48
2024/02/25 02:54:37;;;;;;;10.27;2.85;;;;;;;1.89;100.00;100511.13;5026453;28;20131;-47
2024/02/25 02:57:03;;;;;;;7.53;3.05;;;;;;;1.65;100.00;100463.81;5027435;28;20639;-48
2024/02/25 02:59:29;;;;;;;8.55;3.25;;;;;;;1.69;100.00;100487.78;5042939;28;20516;-51
2024/02/25 03:01:55;;;;;;;8.27;3.33;;;;;;;1.78;100.00;100484.50;5060658;28;20056;-49
2024/02/25 03:04:22;;;;;;;5.38;2.50;;;;;;;1.43;100.00;100464.34;5027987;28;20141;-47
2024/02/25 03:06:48;;;;;;;5.95;2.35;;;;;;;1.65;100.00;100479.19;5026428;28;20467;-50
2024/02/25 03:09:14;;;;;;;4.80;2.53;;;;;;;1.87;100.00;100505.13;5027021;28;20071;-45
2024/02/25 03:11:40;;;;;;;9.00;3.53;;;;;;;1.57;100.00;100451.75;5026763;28;20124;-49
2024/02/25 03:14:06;;;;;;;8.43;3.80;;;;;;;1.80;100.00;100499.06;5027134;28;20069;-45
2024/02/25 03:16:32;;;;;;;5.55;2.83;;;;;;;1.61;100.00;100471.44;5027999;28;20040;-49
2024/02/25 03:18:58;;;;;;;9.27;3.50;;;;;;;1.65;100.00;100476.63;5028351;28;20930;-46
2024/02/25 03:21:25;;;;;;;4.32;2.67;;;;;;;1.80;100.00;100511.88;5027647;28;20072;-49
2024/02/25 03:23:51;;;;;;;6.35;3.45;;;;;;;1.53;100.00;100465.34;5026666;28;20068;-46
2024/02/25 03:26:19;;;;;;;7.05;3.15;;;;;;;1.75;100.00;100504.94;5025799;28;20113;-49
2024/02/25 03:28:45;;;;;;;9.30;4.07;;;;;;;1.72;100.00;100504.91;5009752;28;20076;-46
2024/02/25 03:31:11;;;;;;;6.72;3.35;;;;;;;1.72;100.00;100500.66;5025852;28;20052;-49
2024/02/25 03:33:37;;;;;;;8.73;3.17;;;;;;;1.69;100.00;100503.16;5027839;28;20041;-47
2024/02/25 03:36:04;;;;;;;7.18;2.95;;;;;;;1.68;100.00;100512.53;5059509;28;20041;-50
2024/02/25 03:38:29;;;;;;;6.45;2.75;;;;;;;1.70;100.00;100523.69;5026622;28;20041;-47
2024/02/25 03:40:55;;;;;;;7.00;3.63;;;;;;;1.70;100.00;100522.84;5027439;28;20431;-47
2024/02/25 03:43:22;;;;;;;7.32;2.88;;;;;;;1.69;100.00;100503.16;5026232;28;20041;-48
2024/02/25 03:45:48;;;;;;;6.25;2.42;;;;;;;1.64;100.00;100530.41;5042282;28;20088;-46
2024/02/25 03:48:14;;;;;;;8.77;3.45;;;;;;;1.63;100.00;100495.38;5026267;28;20059;-45
2024/02/25 03:50:40;;;;;;;6.05;2.47;;;;;;;1.32;100.00;100447.09;5058438;28;20083;-47
2024/02/25 03:53:06;;;;;;;7.20;3.72;;;;;;;1.62;100.00;100503.94;5025938;28;20068;-49
2024/02/25 03:55:32;;;;;;;8.35;3.50;;;;;;;1.63;100.00;100503.06;5026652;28;20045;-48
2024/02/25 03:57:58;;;;;;;12.43;3.80;;;;;;;1.62;100.00;100506.50;5025802;28;20040;-47
2024/02/25 04:00:25;;;;;;;8.63;2.67;;;;;;;1.41;100.00;100483.97;5059080;28;20425;-46
2024/02/25 04:02:51;;;;;;;8.10;3.70;;;;;;;1.46;100.00;100476.34;5023741;28;20390;-45
2024/02/25 04:05:17;;;;;;;10.13;3.90;;;;;;;1.44;100.00;100476.31;5025969;28;20068;-48
2024/02/25 04:07:44;;;;;;;7.07;3.88;;;;;;;1.66;100.00;100509.13;5025543;28;20371;-50
2024/02/25 04:10:11;;;;;;;8.50;3.70;;;;;;;1.69;100.00;100511.72;5026841;28;20037;-48
2024/02/25 04:12:37;;;;;;;10.13;3.65;;;;;;;1.72;100.00;100533.13;5026135;28;20045;-51
2024/02/25 04:15:04;;;;;;;8.20;3.38;;;;;;;1.53;100.00;100490.94;5025866;28;20491;-52
2024/02/25 04:17:31;;;;;;;8.95;4.07;;;;;;;1.74;100.00;100526.28;5025959;28;20041;-52
2024/02/25 04:19:57;;;;;;;6.03;2.97;;;;;;;1.78;100.00;100528.91;5027830;28;20053;-46
2024/02/25 04:22:24;;;;;;;9.27;4.45;;;;;;;1.80;100.00;100531.50;5026981;28;20041;-47
2024/02/25 04:24:50;;;;;;;10.95;4.13;;;;;;;1.80;99.78;100534.94;5024890;28;20103;-48
2024/02/25 04:27:17;;;;;;;9.15;3.80;;;;;;;1.57;100.00;100503.84;5024542;28;20045;-52
2024/02/25 04:29:44;;;;;;;8.25;3.53;;;;;;;1.81;99.62;100539.22;5042301;28;20045;-50
2024/02/25 04:32:10;;;;;;;8.15;3.92;;;;;;;1.80;99.43;100539.19;5020111;28;20129;-47
2024/02/25 04:34:36;;;;;;;10.07;3.40;;;;;;;1.85;99.03;100547.81;5025692;28;20045;-51
2024/02/25 04:37:03;;;;;;;5.82;3.25;;;;;;;1.81;98.71;100539.22;5025752;28;20048;-45
2024/02/25 04:39:29;;;;;;;8.98;3.47;;;;;;;1.80;98.72;100552.88;5008918;28;20143;-45
2024/02/25 04:41:56;;;;;;;8.70;3.08;;;;;;;1.79;98.33;100555.41;5026033;28;20080;-48
2024/02/25 04:44:22;;;;;;;9.50;3.80;;;;;;;1.80;98.69;100547.75;5026335;28;20037;-47
2024/02/25 04:46:48;;;;;;;11.93;4.05;;;;;;;1.86;98.74;100552.13;5026567;28;20425;-51
2024/02/25 04:49:16;;;;;;;7.82;3.60;;;;;;;1.86;98.15;100567.50;5037820;28;20041;-50
2024/02/25 04:51:43;;;;;;;4.55;2.50;;;;;;;1.82;97.94;100565.72;5016988;28;20084;-48
2024/02/25 04:54:13;;;;;;;11.38;3.63;;;;;;;1.78;97.89;100562.25;5026612;28;20099;-46
2024/02/25 04:56:39;;;;;;;9.55;4.05;;;;;;;1.78;98.18;100559.69;5026077;28;20183;-50
2024/02/25 04:59:05;;;;;;;13.07;3.65;;;;;;;1.68;97.99;100556.13;5026253;28;20037;-47
2024/02/25 05:01:31;;;;;;;10.38;3.85;;;;;;;1.76;97.95;100553.69;5025888;28;20041;-46
2024/02/25 05:03:57;;;;;;;8.30;3.40;;;;;;;1.79;98.12;100555.41;5024959;28;20432;-46
2024/02/25 05:06:23;;;;;;;7.28;3.35;;;;;;;1.76;98.34;100563.06;5025897;28;20045;-47
2024/02/25 05:08:49;;;;;;;11.32;4.72;;;;;;;1.76;98.50;100557.94;5056862;28;20114;-50
2024/02/25 05:11:15;;;;;;;9.57;4.13;;;;;;;1.79;98.78;100566.53;5024360;28;20631;-50
2024/02/25 05:13:43;;;;;;;8.07;3.28;;;;;;;1.74;99.71;100550.22;5026351;28;20424;-48
2024/02/25 05:16:10;;;;;;;7.78;4.43;;;;;;;1.78;98.95;100567.38;5026075;28;20045;-50
2024/02/25 05:18:36;;;;;;;10.20;3.28;;;;;;;1.75;98.59;100562.22;5024965;28;20033;-48
2024/02/25 05:21:02;;;;;;;5.28;2.83;;;;;;;1.75;97.78;100584.41;5026257;28;20509;-46
2024/02/25 05:23:28;;;;;;;11.25;4.63;;;;;;;1.77;97.36;100562.25;5024802;28;20033;-46
2024/02/25 05:25:54;;;;;;;6.82;3.42;;;;;;;1.80;97.68;100580.22;5057965;28;20061;-47
2024/02/25 05:28:20;;;;;;;8.82;4.30;;;;;;;1.80;97.73;100578.53;5025847;28;20048;-50
2024/02/25 05:30:46;;;;;;;9.32;4.35;;;;;;;1.82;97.95;100591.38;5003805;28;20065;-48
2024/02/25 05:33:12;;;;;;;9.77;3.85;;;;;;;1.78;97.62;100577.63;5025916;28;20152;-47
2024/02/25 05:35:39;;;;;;;7.50;3.50;;;;;;;1.79;97.80;100587.03;5026385;28;20045;-48
2024/02/25 05:38:05;;;;;;;8.52;3.70;;;;;;;1.74;97.63;100583.56;5025679;28;20064;-46
2024/02/25 05:40:31;;;;;;;6.22;3.22;;;;;;;1.53;98.03;100539.63;5025370;28;20049;-51
2024/02/25 05:42:57;;;;;;;8.80;3.58;;;;;;;1.80;98.21;100583.66;5025879;28;20045;-49
2024/02/25 05:45:23;;;;;;;6.35;3.58;;;;;;;1.82;98.25;100588.81;5026338;28;20127;-54
2024/02/25 05:47:49;;;;;;;6.93;3.83;;;;;;;1.57;98.34;100537.16;5026359;28;20041;-50
2024/02/25 05:50:15;;;;;;;9.52;3.60;;;;;;;1.73;97.96;100570.72;5024469;28;20064;-48
2024/02/25 05:52:43;;;;;;;9.52;4.22;;;;;;;1.78;98.09;100585.31;5057159;28;20038;-49
2024/02/25 05:55:09;;;;;;;6.40;3.35;;;;;;;1.77;97.62;100586.19;5025970;28;20085;-51
2024/02/25 05:57:35;;;;;;;8.90;3.80;;;;;;;1.74;97.47;100582.69;5041105;28;20044;-50
2024/02/25 06:00:02;;;;;;;13.68;4.70;;;;;;;1.56;97.65;100547.41;5026200;28;20037;-47
2024/02/25 06:02:42;;;;;;;9.98;4.07;;;;;;;1.66;97.92;100550.13;5025792;28;20041;-49
2024/02/25 06:05:12;;;;;;;9.10;3.97;;;;;;;1.73;97.89;100563.88;5024589;28;20065;-51
2024/02/25 06:07:38;;;;;;;9.20;4.07;;;;;;;1.95;97.91;100576.19;5024669;28;20041;-49
2024/02/25 06:10:04;;;;;;;9.13;3.33;;;;;;;1.92;97.56;100590.66;5041617;28;20394;-48
2024/02/25 06:12:35;;;;;;;8.73;4.90;;;;;;;1.86;97.59;100590.56;5023874;28;20041;-50
2024/02/25 06:15:13;;;;;;;8.25;3.70;;;;;;;1.80;97.51;100593.91;5025710;28;20045;-47
2024/02/25 06:17:43;;;;;;;7.00;3.42;;;;;;;1.76;97.99;100584.44;5025776;28;20128;-49
2024/02/25 06:20:10;;;;;;;7.93;3.67;;;;;;;1.73;97.67;100586.94;5024222;28;20045;-51
2024/02/25 06:22:38;;;;;;;8.40;3.88;;;;;;;1.72;97.85;100590.38;5025589;28;20517;-52
2024/02/25 06:25:04;;;;;;;10.60;3.85;;;;;;;1.72;97.72;100575.00;5008549;28;20208;-53
2024/02/25 06:27:39;;;;;;;8.52;3.67;;;;;;;1.53;98.00;100555.88;5024141;28;20467;-49
2024/02/25 06:30:07;;;;;;;9.57;3.67;;;;;;;1.65;98.04;100581.72;5025807;28;20033;-49
2024/02/25 06:32:33;;;;;;;10.55;4.40;;;;;;;1.57;98.18;100560.22;5023885;28;20065;-48
2024/02/25 06:35:00;;;;;;;10.70;3.67;;;;;;;1.77;98.44;100596.44;5024918;28;20145;-51
2024/02/25 06:37:29;;;;;;;7.90;3.63;;;;;;;1.69;98.52;100596.28;5028242;28;20127;-50
2024/02/25 06:39:55;;;;;;;8.23;2.70;;;;;;;1.73;99.09;100598.94;5011602;28;20539;-48
2024/02/25 06:42:21;;;;;;;9.65;4.55;;;;;;;1.65;99.19;100588.53;5027540;28;20132;-49
2024/02/25 06:44:47;;;;;;;9.93;4.63;;;;;;;1.75;99.76;100602.34;5027171;28;20130;-49
2024/02/25 06:47:14;;;;;;;8.57;4.20;;;;;;;1.75;99.79;100605.78;5060753;28;20039;-50
2024/02/25 06:49:40;;;;;;;9.82;4.40;;;;;;;1.68;99.39;100592.00;5060550;28;20041;-48
2024/02/25 06:52:07;;;;;;;10.27;4.10;;;;;;;1.74;99.35;100593.81;5026980;28;20076;-50
2024/02/25 06:54:33;;;;;;;9.80;4.18;;;;;;;1.59;99.42;100568.78;5013194;28;20374;-49
2024/02/25 06:56:59;;;;;;;8.35;3.83;;;;;;;1.81;99.85;100590.50;5009044;28;20041;-47
2024/02/25 06:59:25;;;;;;;10.88;4.10;;;;;;;1.76;99.86;100581.00;5022253;28;20041;-48
2024/02/25 07:01:51;;;;;;;7.70;3.53;;;;;;;1.84;99.86;100602.50;5026533;28;20043;-54
2024/02/25 07:04:19;;;;;;;7.85;3.90;;;;;;;1.63;99.76;100573.13;5026385;28;20036;-49
2024/02/25 07:06:45;;;;;;;10.73;3.80;;;;;;;1.80;99.37;100598.16;5027315;28;20041;-54
2024/02/25 07:09:11;;;;;;;8.65;3.95;;;;;;;1.60;99.39;100569.66;5026891;28;20072;-49
2024/02/25 07:11:37;;;;;;;5.70;3.08;;;;;;;1.82;99.28;100586.25;5028262;28;20131;-52
2024/02/25 07:14:03;;;;;;;8.25;4.28;;;;;;;1.80;99.23;100586.22;5041971;28;20061;-50
2024/02/25 07:16:29;;;;;;;9.38;4.18;;;;;;;1.75;99.84;100571.59;5026344;28;20075;-54
2024/02/25 07:18:55;;;;;;;6.97;3.75;;;;;;;1.96;100.00;100605.25;5026795;28;20041;-49
2024/02/25 07:21:21;;;;;;;13.50;4.32;;;;;;;1.75;100.00;100558.78;5026390;28;20044;-49
2024/02/25 07:23:47;;;;;;;10.68;4.15;;;;;;;1.91;100.00;100588.94;5026801;28;20041;-51
2024/02/25 07:26:14;;;;;;;8.93;3.72;;;;;;;1.94;100.00;100584.72;5048409;28;20402;-52
2024/02/25 07:28:41;;;;;;;11.48;4.10;;;;;;;1.94;100.00;100586.41;5005016;28;20068;-52
2024/02/25 07:31:18;;;;;;;15.85;3.70;;;;;;;2.01;100.00;100586.53;5028071;28;20618;-52
2024/02/25 07:33:46;;;;;;;8.18;4.40;;;;;;;2.04;100.00;100580.59;5009930;28;20091;-50
2024/02/25 07:36:14;;;;;;;8.32;3.75;;;;;;;2.11;100.00;100574.69;5026671;28;20124;-51
2024/02/25 07:38:40;;;;;;;9.85;4.00;;;;;;;2.14;100.00;100577.31;5027875;28;20531;-54
2024/02/25 07:41:07;;;;;;;8.45;3.90;;;;;;;2.18;99.68;100584.22;5026473;28;20044;-49
2024/02/25 07:43:34;;;;;;;8.32;3.42;;;;;;;2.20;98.89;100589.38;5050011;28;20400;-50
2024/02/25 07:46:02;;;;;;;10.23;4.15;;;;;;;2.12;98.11;100590.13;5024106;28;20045;-53
2024/02/25 07:48:29;;;;;;;7.05;3.38;;;;;;;2.10;97.12;100583.22;5026381;28;20794;-50
2024/02/25 07:50:54;;;;;;;8.23;4.07;;;;;;;2.11;96.65;100595.22;5004682;28;20044;-53
2024/02/25 07:53:21;;;;;;;13.52;3.83;;;;;;;1.99;96.12;100587.38;5025803;28;20053;-54
2024/02/25 07:55:47;;;;;;;6.75;2.85;;;;;;;1.97;95.50;100577.06;5027094;28;20055;-54
2024/02/25 07:58:13;;;;;;;8.68;3.47;;;;;;;1.98;95.32;100594.19;5027665;28;20037;-53
2024/02/25 08:00:39;;;;;;;28.73;3.38;;;;;;;2.06;95.62;100578.91;5024301;28;20041;-50
2024/02/25 08:03:05;;;;;;;7.68;3.45;;;;;;;1.95;94.35;100575.31;5027957;28;20045;-49
2024/02/25 08:05:31;;;;;;;7.45;3.38;;;;;;;2.00;94.01;100582.25;5026763;28;20068;-50
2024/02/25 08:07:57;;;;;;;13.52;3.70;;;;;;;1.83;94.15;100557.22;5026126;28;20045;-46
2024/02/25 08:10:25;;;;;;;7.82;3.67;;;;;;;2.02;94.20;100580.56;5026065;28;20049;-51
2024/02/25 08:12:54;;;;;;;12.65;4.05;;;;;;;2.09;94.36;100595.19;5006152;28;20068;-47
2024/02/25 08:15:20;;;;;;;5.82;3.20;;;;;;;2.13;94.68;100585.84;5024125;28;20045;-51
2024/02/25 08:17:47;;;;;;;6.95;3.60;;;;;;;1.99;94.93;100559.16;5025542;28;20509;-47
2024/02/25 08:20:12;;;;;;;9.75;4.00;;;;;;;2.03;94.62;100594.25;5024412;28;20045;-49
2024/02/25 08:22:39;;;;;;;6.78;3.58;;;;;;;1.80;95.37;100552.88;5025200;28;20136;-49
2024/02/25 08:25:06;;;;;;;7.18;3.67;;;;;;;2.08;95.55;100587.50;5033320;28;20056;-50
2024/02/25 08:27:32;;;;;;;8.65;4.18;;;;;;;2.09;95.39;100589.22;5028535;28;20138;-54
2024/02/25 08:29:59;;;;;;;9.57;4.18;;;;;;;2.06;94.72;100581.47;5024566;28;20131;-48
2024/02/25 08:32:25;;;;;;;8.90;4.32;;;;;;;2.08;94.58;100601.19;4975617;28;20111;-51
2024/02/25 08:34:54;;;;;;;5.45;3.33;;;;;;;1.96;92.72;100608.69;5028636;28;20092;-49
2024/02/25 08:37:24;;;;;;;9.20;4.47;;;;;;;1.89;92.44;100599.16;5022181;28;20037;-52
2024/02/25 08:39:52;;;;;;;;;;;;;;;1.90;92.48;100592.34;5023633;28;20048;-54
2024/02/25 08:42:19;;;;;;;10.65;4.07;;;;;;;1.88;92.29;100602.59;5026374;28;19960;-56
2024/02/25 08:44:45;;;;;;;6.85;3.78;;;;;;;1.95;92.48;100600.97;5024152;28;20453;-48
2024/02/25 08:47:12;;;;;;;9.85;3.08;;;;;;;2.02;92.07;100615.59;5026220;28;20041;-48
2024/02/25 08:49:37;;;;;;;8.60;4.05;;;;;;;2.06;91.24;100604.53;5024344;28;20057;-47
2024/02/25 08:52:04;;;;;;;6.97;3.08;;;;;;;2.01;90.67;100606.19;5025795;28;20045;-53
2024/02/25 08:54:31;;;;;;;11.00;3.75;;;;;;;2.15;90.12;100626.94;4990958;28;20664;-55
2024/02/25 08:56:57;;;;;;;10.93;3.03;;;;;;;2.22;89.43;100632.16;5024653;28;20291;-48
2024/02/25 08:59:24;;;;;;;6.38;3.55;;;;;;;2.24;87.21;100639.88;5024186;28;20083;-49
2024/02/25 09:01:50;;;;;;;8.95;3.08;;;;;;;2.01;86.01;100596.78;5024461;28;20135;-57
2024/02/25 09:04:19;;;;;;;4.75;2.50;;;;;;;2.29;85.09;100635.69;5025406;28;20125;-46
2024/02/25 09:06:45;;;;;;;7.53;3.47;;;;;;;2.08;83.53;100603.75;5024285;28;20049;-53
2024/02/25 09:09:14;;;;;;;6.53;3.38;;;;;;;2.36;83.14;100640.91;5026118;28;20042;-46
2024/02/25 09:11:41;;;;;;;10.60;3.28;;;;;;;2.36;82.75;100635.75;5008852;28;20083;-50
2024/02/25 09:14:07;;;;;;;6.80;2.65;;;;;;;2.42;80.82;100635.00;5024701;28;20048;-49
2024/02/25 09:16:33;;;;;;;5.05;2.47;;;;;;;2.41;79.99;100648.66;5023673;28;20426;-50
2024/02/25 09:18:58;;;;;;;7.38;2.50;;;;;;;2.43;78.73;100629.88;4988760;28;20037;-52
2024/02/25 09:21:24;;;;;;;8.75;2.60;;;;;;;2.45;78.69;100629.91;5024077;28;20059;-49
2024/02/25 09:23:51;;;;;;;17.92;3.00;;;;;;;2.44;79.52;100610.22;5023930;28;20037;-52
2024/02/25 09:26:19;;;;;;;9.05;2.90;;;;;;;2.41;78.27;100644.38;5022298;28;20654;-52
2024/02/25 09:28:45;;;;;;;5.65;2.58;;;;;;;2.35;78.71;100628.94;4987922;28;20045;-47
2024/02/25 09:31:16;;;;;;;7.38;3.00;;;;;;;2.33;78.83;100634.88;5023176;28;20045;-48
2024/02/25 09:33:42;;;;;;;7.68;2.97;;;;;;;1.99;79.30;100577.94;5021743;28;20045;-47
2024/02/25 09:36:08;;;;;;;5.13;3.03;;;;;;;2.27;79.83;100617.69;5020280;28;20140;-51
2024/02/25 09:38:34;;;;;;;5.00;2.55;;;;;;;2.40;79.46;100641.81;5022457;28;20709;-49
2024/02/25 09:41:02;;;;;;;6.07;2.53;;;;;;;2.35;79.29;100636.63;5023427;28;20600;-49
2024/02/25 09:43:28;;;;;;;11.07;3.03;;;;;;;2.38;79.06;100628.09;5006224;28;20124;-48
2024/02/25 09:45:56;;;;;;;7.85;2.90;;;;;;;2.41;78.77;100629.00;5031530;28;20041;-48
2024/02/25 09:48:25;;;;;;;4.75;2.75;;;;;;;2.46;78.07;100629.91;5024069;28;20607;-51
2024/02/25 09:50:53;;;;;;;8.27;3.33;;;;;;;2.45;77.37;100624.78;5023101;28;20469;-50
2024/02/25 09:53:21;;;;;;;5.63;2.75;;;;;;;2.52;77.42;100637.69;5023575;28;20642;-52
2024/02/25 09:55:49;;;;;;;13.98;3.92;;;;;;;2.59;77.00;100641.22;5022308;28;20155;-46
2024/02/25 09:58:16;;;;;;;9.15;3.17;;;;;;;2.63;76.11;100629.28;5047517;28;20442;-53
2024/02/25 10:00:44;;;;;;;10.82;3.42;;;;;;;2.63;76.22;100624.13;5023455;28;20513;-54
2024/02/25 10:03:13;;;;;;;12.73;3.22;;;;;;;2.65;75.00;100625.91;5021184;28;20090;-48
2024/02/25 10:05:40;;;;;;;10.75;3.00;;;;;;;2.58;74.74;100634.34;4989341;28;20046;-48
2024/02/25 10:08:10;;;;;;;9.50;3.00;;;;;;;2.54;75.16;100615.50;5019997;28;20048;-53
2024/02/25 10:10:37;;;;;;;8.18;3.72;;;;;;;2.54;74.82;100615.50;5027601;28;20576;-54
2024/02/25 10:13:04;;;;;;;7.28;2.97;;;;;;;2.58;74.08;100618.94;5026050;28;20041;-49
2024/02/25 10:15:30;;;;;;;7.07;3.13;;;;;;;2.63;73.81;100622.44;5022773;28;20532;-51
2024/02/25 10:17:56;;;;;;;7.28;2.78;;;;;;;2.62;73.05;100625.00;5027984;28;20049;-49
2024/02/25 10:20:22;;;;;;;5.90;2.63;;;;;;;2.60;72.00;100635.25;5028054;28;20100;-50
2024/02/25 10:23:04;;;;;;;4.45;2.53;;;;;;;2.51;71.56;100594.06;5028534;28;20057;-50
2024/02/25 10:25:31;;;;;;;6.40;2.90;;;;;;;2.66;70.38;100619.06;5025945;28;20771;-52
2024/02/25 10:28:13;;;;;;;6.93;2.83;;;;;;;2.75;70.45;100596.94;5027647;28;20048;-53
2024/02/25 10:30:39;;;;;;;5.70;3.33;;;;;;;2.76;70.33;100608.06;5027074;28;20041;-50
2024/02/25 10:33:15;;;;;;;6.00;2.90;;;;;;;2.93;71.09;100612.53;5010325;28;20037;-50
2024/02/25 10:35:42;;;;;;;9.98;4.63;;;;;;;2.86;70.89;100592.78;5008747;28;20111;-52
2024/02/25 10:38:10;;;;;;;9.90;2.75;;;;;;;3.00;70.59;100621.16;5027589;28;20049;-50
2024/02/25 10:40:36;;;;;;;6.22;3.13;;;;;;;3.03;71.49;100615.22;5010090;28;20037;-50
2024/02/25 10:43:03;;;;;;;8.77;3.25;;;;;;;2.97;71.47;100611.75;5009992;28;20045;-50
2024/02/25 10:45:30;;;;;;;13.25;3.95;;;;;;;2.98;71.68;100628.03;5027680;28;20037;-51
2024/02/25 10:47:56;;;;;;;6.32;3.00;;;;;;;3.06;71.17;100633.22;5029423;28;20072;-50
2024/02/25 10:50:23;;;;;;;6.25;3.05;;;;;;;2.82;71.30;100620.97;5010991;28;20048;-50
2024/02/25 10:52:50;;;;;;;5.82;2.53;;;;;;;2.77;72.84;100627.75;5031501;28;20549;-48
2024/02/25 10:55:17;;;;;;;7.88;3.15;;;;;;;2.75;73.37;100629.44;5038331;28;20047;-51
2024/02/25 10:57:46;;;;;;;11.18;2.80;;;;;;;2.68;73.57;100613.09;5028670;28;20049;-55
2024/02/25 11:00:13;;;;;;;7.18;2.83;;;;;;;2.67;73.91;100621.63;5027188;28;20076;-50
2024/02/25 11:02:40;;;;;;;10.85;3.83;;;;;;;2.63;74.48;100619.00;5025073;28;20852;-52
2024/02/25 11:05:07;;;;;;;8.52;3.20;;;;;;;2.54;74.87;100628.31;5054724;28;20551;-51
2024/02/25 11:07:33;;;;;;;5.93;3.30;;;;;;;2.42;75.63;100614.47;5025267;28;20578;-48
2024/02/25 11:09:58;;;;;;;6.45;3.55;;;;;;;2.45;76.26;100623.09;5027150;28;20041;-50
2024/02/25 11:12:25;;;;;;;9.38;3.45;;;;;;;2.47;76.79;100620.50;5028144;28;20041;-51
2024/02/25 11:15:05;;;;;;;11.27;4.07;;;;;;;2.52;77.75;100619.72;5009244;28;20037;-52
2024/02/25 11:17:36;;;;;;;6.15;2.80;;;;;;;2.43;78.49;100619.63;5010091;28;20068;-53
2024/02/25 11:20:04;;;;;;;;;;;;;;;2.39;79.82;100629.81;5025987;28;20041;-52
2024/02/25 11:22:43;;;;;;;10.90;3.83;;;;;;;2.28;80.26;100627.13;5025568;28;19967;-56
2024/02/25 11:25:30;;;;;;;10.95;3.20;;;;;;;2.27;80.72;100621.94;5028941;28;20042;-49
2024/02/25 11:28:05;;;;;;;6.75;3.50;;;;;;;2.28;81.68;100615.97;5038990;28;20052;-49
2024/02/25 11:30:38;;;;;;;10.32;3.55;;;;;;;2.13;81.86;100591.84;5028123;28;20119;-50